sensor_id;sensor_type;location;lat;lon;timestamp;P1;durP1;ratioP1;P2;durP2;ratioP2
73456;SDS011;61691;53.072;6.582;2023-05-20T00:01:50;20.02;;;5.50;;
73456;SDS011;61691;53.072;6.582;2023-05-20T00:04:17;17.98;;;5.18;;
73456;SDS011;61691;53.072;6.582;2023-05-20T00:06:44;22.92;;;5.88;;
73456;SDS011;61691;53.072;6.582;2023-05-20T00:09:11;21.08;;;5.60;;
73456;SDS011;61691;53.072;6.582;2023-05-20T00:11:37;19.13;;;5.15;;
73456;SDS011;61691;53.072;6.582;2023-05-20T00:14:05;19.73;;;5.28;;
73456;SDS011;61691;53.072;6.582;2023-05-20T00:16:32;17.67;;;4.95;;
73456;SDS011;61691;53.072;6.582;2023-05-20T00:18:58;20.00;;;5.20;;
73456;SDS011;61691;53.072;6.582;2023-05-20T00:21:26;21.40;;;5.43;;
73456;SDS011;61691;53.072;6.582;2023-05-20T00:23:52;20.73;;;5.72;;
73456;SDS011;61691;53.072;6.582;2023-05-20T00:26:19;23.75;;;5.63;;
73456;SDS011;61691;53.072;6.582;2023-05-20T00:28:46;23.55;;;5.60;;
73456;SDS011;61691;53.072;6.582;2023-05-20T00:31:13;18.33;;;5.20;;
73456;SDS011;61691;53.072;6.582;2023-05-20T00:33:40;20.17;;;5.47;;
73456;SDS011;61691;53.072;6.582;2023-05-20T00:36:07;18.35;;;5.05;;
73456;SDS011;61691;53.072;6.582;2023-05-20T00:38:34;18.30;;;5.20;;
73456;SDS011;61691;53.072;6.582;2023-05-20T00:41:01;20.42;;;5.18;;
73456;SDS011;61691;53.072;6.582;2023-05-20T00:43:27;19.33;;;5.45;;
73456;SDS011;61691;53.072;6.582;2023-05-20T00:45:54;22.70;;;5.50;;
73456;SDS011;61691;53.072;6.582;2023-05-20T00:48:21;21.55;;;5.78;;
73456;SDS011;61691;53.072;6.582;2023-05-20T00:50:48;20.25;;;5.72;;
73456;SDS011;61691;53.072;6.582;2023-05-20T00:53:16;22.88;;;6.30;;
73456;SDS011;61691;53.072;6.582;2023-05-20T00:55:44;22.13;;;6.18;;
73456;SDS011;61691;53.072;6.582;2023-05-20T00:58:11;20.02;;;5.38;;
73456;SDS011;61691;53.072;6.582;2023-05-20T01:00:38;19.75;;;5.40;;
73456;SDS011;61691;53.072;6.582;2023-05-20T01:03:04;18.85;;;5.30;;
73456;SDS011;61691;53.072;6.582;2023-05-20T01:05:31;19.17;;;5.45;;
73456;SDS011;61691;53.072;6.582;2023-05-20T01:07:59;18.60;;;5.40;;
73456;SDS011;61691;53.072;6.582;2023-05-20T01:10:26;18.30;;;4.95;;
73456;SDS011;61691;53.072;6.582;2023-05-20T01:12:56;19.48;;;5.63;;
73456;SDS011;61691;53.072;6.582;2023-05-20T01:15:25;20.47;;;6.10;;
73456;SDS011;61691;53.072;6.582;2023-05-20T01:17:54;23.27;;;6.80;;
73456;SDS011;61691;53.072;6.582;2023-05-20T01:20:27;18.30;;;5.35;;
73456;SDS011;61691;53.072;6.582;2023-05-20T01:22:58;18.85;;;5.38;;
73456;SDS011;61691;53.072;6.582;2023-05-20T01:25:24;19.60;;;5.60;;
73456;SDS011;61691;53.072;6.582;2023-05-20T01:27:52;18.70;;;5.70;;
73456;SDS011;61691;53.072;6.582;2023-05-20T01:30:21;20.13;;;5.72;;
73456;SDS011;61691;53.072;6.582;2023-05-20T01:32:55;17.80;;;5.50;;
73456;SDS011;61691;53.072;6.582;2023-05-20T01:35:25;20.33;;;5.72;;
73456;SDS011;61691;53.072;6.582;2023-05-20T01:37:54;19.83;;;5.53;;
73456;SDS011;61691;53.072;6.582;2023-05-20T01:40:22;16.92;;;5.43;;
73456;SDS011;61691;53.072;6.582;2023-05-20T01:42:51;21.40;;;6.28;;
73456;SDS011;61691;53.072;6.582;2023-05-20T01:45:20;18.75;;;5.63;;
73456;SDS011;61691;53.072;6.582;2023-05-20T01:47:49;22.63;;;5.53;;
73456;SDS011;61691;53.072;6.582;2023-05-20T01:50:16;18.30;;;4.88;;
73456;SDS011;61691;53.072;6.582;2023-05-20T01:52:42;18.40;;;5.57;;
73456;SDS011;61691;53.072;6.582;2023-05-20T01:55:09;17.00;;;5.20;;
73456;SDS011;61691;53.072;6.582;2023-05-20T01:57:36;18.33;;;5.10;;
73456;SDS011;61691;53.072;6.582;2023-05-20T02:00:03;19.13;;;5.18;;
73456;SDS011;61691;53.072;6.582;2023-05-20T02:02:32;18.65;;;5.45;;
73456;SDS011;61691;53.072;6.582;2023-05-20T02:04:59;18.50;;;5.47;;
73456;SDS011;61691;53.072;6.582;2023-05-20T02:07:26;17.45;;;4.95;;
73456;SDS011;61691;53.072;6.582;2023-05-20T02:09:52;20.63;;;6.00;;
73456;SDS011;61691;53.072;6.582;2023-05-20T02:12:19;18.95;;;4.97;;
73456;SDS011;61691;53.072;6.582;2023-05-20T02:14:46;18.33;;;5.13;;
73456;SDS011;61691;53.072;6.582;2023-05-20T02:17:13;19.15;;;5.03;;
73456;SDS011;61691;53.072;6.582;2023-05-20T02:19:45;18.27;;;4.85;;
73456;SDS011;61691;53.072;6.582;2023-05-20T02:22:13;17.25;;;4.85;;
73456;SDS011;61691;53.072;6.582;2023-05-20T02:24:40;21.58;;;5.35;;
73456;SDS011;61691;53.072;6.582;2023-05-20T02:27:08;21.15;;;5.20;;
73456;SDS011;61691;53.072;6.582;2023-05-20T02:29:35;17.27;;;4.80;;
73456;SDS011;61691;53.072;6.582;2023-05-20T02:32:02;16.92;;;4.63;;
73456;SDS011;61691;53.072;6.582;2023-05-20T02:34:29;20.52;;;5.80;;
73456;SDS011;61691;53.072;6.582;2023-05-20T02:36:57;16.45;;;4.63;;
73456;SDS011;61691;53.072;6.582;2023-05-20T02:39:24;16.08;;;4.80;;
73456;SDS011;61691;53.072;6.582;2023-05-20T02:41:51;16.70;;;5.70;;
73456;SDS011;61691;53.072;6.582;2023-05-20T02:44:18;17.40;;;4.70;;
73456;SDS011;61691;53.072;6.582;2023-05-20T02:46:44;19.05;;;5.10;;
73456;SDS011;61691;53.072;6.582;2023-05-20T02:49:11;16.48;;;4.50;;
73456;SDS011;61691;53.072;6.582;2023-05-20T02:51:38;18.08;;;4.93;;
73456;SDS011;61691;53.072;6.582;2023-05-20T02:54:06;16.73;;;4.75;;
73456;SDS011;61691;53.072;6.582;2023-05-20T02:56:32;21.38;;;4.63;;
73456;SDS011;61691;53.072;6.582;2023-05-20T02:58:59;18.73;;;5.32;;
73456;SDS011;61691;53.072;6.582;2023-05-20T03:01:26;19.15;;;5.10;;
73456;SDS011;61691;53.072;6.582;2023-05-20T03:03:54;17.23;;;4.43;;
73456;SDS011;61691;53.072;6.582;2023-05-20T03:06:21;18.02;;;4.28;;
73456;SDS011;61691;53.072;6.582;2023-05-20T03:08:48;16.98;;;4.53;;
73456;SDS011;61691;53.072;6.582;2023-05-20T03:11:14;17.65;;;4.05;;
73456;SDS011;61691;53.072;6.582;2023-05-20T03:13:41;17.75;;;4.20;;
73456;SDS011;61691;53.072;6.582;2023-05-20T03:16:08;17.88;;;4.63;;
73456;SDS011;61691;53.072;6.582;2023-05-20T03:18:35;15.48;;;4.30;;
73456;SDS011;61691;53.072;6.582;2023-05-20T03:21:01;16.42;;;4.65;;
73456;SDS011;61691;53.072;6.582;2023-05-20T03:23:28;18.27;;;4.85;;
73456;SDS011;61691;53.072;6.582;2023-05-20T03:25:55;18.80;;;5.18;;
73456;SDS011;61691;53.072;6.582;2023-05-20T03:28:21;18.40;;;4.10;;
73456;SDS011;61691;53.072;6.582;2023-05-20T03:30:48;17.70;;;4.28;;
73456;SDS011;61691;53.072;6.582;2023-05-20T03:33:15;19.40;;;4.35;;
73456;SDS011;61691;53.072;6.582;2023-05-20T03:35:41;15.95;;;4.28;;
73456;SDS011;61691;53.072;6.582;2023-05-20T03:38:08;16.27;;;3.90;;
73456;SDS011;61691;53.072;6.582;2023-05-20T03:40:35;16.77;;;4.15;;
73456;SDS011;61691;53.072;6.582;2023-05-20T03:43:02;15.77;;;3.88;;
73456;SDS011;61691;53.072;6.582;2023-05-20T03:45:28;15.50;;;4.07;;
73456;SDS011;61691;53.072;6.582;2023-05-20T03:47:55;16.77;;;3.80;;
73456;SDS011;61691;53.072;6.582;2023-05-20T03:50:22;15.55;;;4.00;;
73456;SDS011;61691;53.072;6.582;2023-05-20T03:52:48;14.02;;;3.45;;
73456;SDS011;61691;53.072;6.582;2023-05-20T03:55:15;14.68;;;3.40;;
73456;SDS011;61691;53.072;6.582;2023-05-20T03:57:42;16.02;;;3.72;;
73456;SDS011;61691;53.072;6.582;2023-05-20T04:00:09;18.02;;;3.67;;
73456;SDS011;61691;53.072;6.582;2023-05-20T04:02:37;13.88;;;3.30;;
73456;SDS011;61691;53.072;6.582;2023-05-20T04:05:04;15.70;;;3.53;;
73456;SDS011;61691;53.072;6.582;2023-05-20T04:07:33;14.83;;;3.30;;
73456;SDS011;61691;53.072;6.582;2023-05-20T04:10:01;15.43;;;3.63;;
73456;SDS011;61691;53.072;6.582;2023-05-20T04:12:29;13.70;;;3.45;;
73456;SDS011;61691;53.072;6.582;2023-05-20T04:14:58;13.63;;;3.03;;
73456;SDS011;61691;53.072;6.582;2023-05-20T04:17:30;13.73;;;3.10;;
73456;SDS011;61691;53.072;6.582;2023-05-20T04:19:57;12.15;;;3.15;;
73456;SDS011;61691;53.072;6.582;2023-05-20T04:22:27;13.20;;;3.00;;
73456;SDS011;61691;53.072;6.582;2023-05-20T04:24:53;16.38;;;2.97;;
73456;SDS011;61691;53.072;6.582;2023-05-20T04:27:21;17.08;;;3.35;;
73456;SDS011;61691;53.072;6.582;2023-05-20T04:29:48;13.68;;;2.80;;
73456;SDS011;61691;53.072;6.582;2023-05-20T04:32:16;12.57;;;2.70;;
73456;SDS011;61691;53.072;6.582;2023-05-20T04:34:44;14.25;;;2.72;;
73456;SDS011;61691;53.072;6.582;2023-05-20T04:37:11;11.27;;;3.08;;
73456;SDS011;61691;53.072;6.582;2023-05-20T04:39:39;10.73;;;2.40;;
73456;SDS011;61691;53.072;6.582;2023-05-20T04:42:05;11.30;;;2.50;;
73456;SDS011;61691;53.072;6.582;2023-05-20T04:44:32;12.35;;;2.38;;
73456;SDS011;61691;53.072;6.582;2023-05-20T04:46:59;12.15;;;2.78;;
73456;SDS011;61691;53.072;6.582;2023-05-20T04:49:26;10.65;;;2.63;;
73456;SDS011;61691;53.072;6.582;2023-05-20T04:51:55;10.38;;;2.42;;
73456;SDS011;61691;53.072;6.582;2023-05-20T04:54:21;9.88;;;2.67;;
73456;SDS011;61691;53.072;6.582;2023-05-20T04:56:48;10.38;;;2.42;;
73456;SDS011;61691;53.072;6.582;2023-05-20T04:59:16;12.77;;;2.90;;
73456;SDS011;61691;53.072;6.582;2023-05-20T05:01:43;12.57;;;2.53;;
73456;SDS011;61691;53.072;6.582;2023-05-20T05:04:10;11.82;;;3.00;;
73456;SDS011;61691;53.072;6.582;2023-05-20T05:06:37;10.57;;;2.63;;
73456;SDS011;61691;53.072;6.582;2023-05-20T05:09:03;10.93;;;2.40;;
73456;SDS011;61691;53.072;6.582;2023-05-20T05:11:30;9.68;;;2.25;;
73456;SDS011;61691;53.072;6.582;2023-05-20T05:13:57;9.98;;;2.20;;
73456;SDS011;61691;53.072;6.582;2023-05-20T05:16:24;10.82;;;2.22;;
73456;SDS011;61691;53.072;6.582;2023-05-20T05:18:51;12.15;;;2.38;;
73456;SDS011;61691;53.072;6.582;2023-05-20T05:21:17;12.65;;;3.53;;
73456;SDS011;61691;53.072;6.582;2023-05-20T05:23:45;9.70;;;2.33;;
73456;SDS011;61691;53.072;6.582;2023-05-20T05:26:11;8.73;;;2.20;;
73456;SDS011;61691;53.072;6.582;2023-05-20T05:28:40;11.05;;;2.38;;
73456;SDS011;61691;53.072;6.582;2023-05-20T05:31:07;11.80;;;2.40;;
73456;SDS011;61691;53.072;6.582;2023-05-20T05:33:34;10.80;;;2.38;;
73456;SDS011;61691;53.072;6.582;2023-05-20T05:36:01;11.18;;;2.50;;
73456;SDS011;61691;53.072;6.582;2023-05-20T05:38:27;10.27;;;2.42;;
73456;SDS011;61691;53.072;6.582;2023-05-20T05:40:54;9.05;;;2.00;;
73456;SDS011;61691;53.072;6.582;2023-05-20T05:43:21;11.90;;;2.17;;
73456;SDS011;61691;53.072;6.582;2023-05-20T05:45:48;8.30;;;1.90;;
73456;SDS011;61691;53.072;6.582;2023-05-20T05:48:14;9.18;;;2.05;;
73456;SDS011;61691;53.072;6.582;2023-05-20T05:50:45;7.68;;;2.08;;
73456;SDS011;61691;53.072;6.582;2023-05-20T05:53:12;8.45;;;2.05;;
73456;SDS011;61691;53.072;6.582;2023-05-20T05:55:39;9.60;;;2.38;;
73456;SDS011;61691;53.072;6.582;2023-05-20T05:58:05;10.70;;;2.30;;
73456;SDS011;61691;53.072;6.582;2023-05-20T06:00:32;11.10;;;2.28;;
73456;SDS011;61691;53.072;6.582;2023-05-20T06:02:59;9.05;;;1.92;;
73456;SDS011;61691;53.072;6.582;2023-05-20T06:05:26;15.65;;;2.97;;
73456;SDS011;61691;53.072;6.582;2023-05-20T06:07:55;11.00;;;2.45;;
73456;SDS011;61691;53.072;6.582;2023-05-20T06:10:22;9.63;;;2.25;;
73456;SDS011;61691;53.072;6.582;2023-05-20T06:12:49;7.15;;;1.92;;
73456;SDS011;61691;53.072;6.582;2023-05-20T06:15:15;9.20;;;2.10;;
73456;SDS011;61691;53.072;6.582;2023-05-20T06:17:42;7.72;;;1.83;;
73456;SDS011;61691;53.072;6.582;2023-05-20T06:20:09;12.25;;;2.42;;
73456;SDS011;61691;53.072;6.582;2023-05-20T06:22:36;11.48;;;2.00;;
73456;SDS011;61691;53.072;6.582;2023-05-20T06:25:03;9.90;;;2.58;;
73456;SDS011;61691;53.072;6.582;2023-05-20T06:27:31;7.47;;;1.70;;
73456;SDS011;61691;53.072;6.582;2023-05-20T06:29:58;9.95;;;2.72;;
73456;SDS011;61691;53.072;6.582;2023-05-20T06:32:25;9.80;;;2.05;;
73456;SDS011;61691;53.072;6.582;2023-05-20T06:34:52;9.30;;;1.90;;
73456;SDS011;61691;53.072;6.582;2023-05-20T06:37:19;9.15;;;1.90;;
73456;SDS011;61691;53.072;6.582;2023-05-20T06:39:49;8.02;;;1.75;;
73456;SDS011;61691;53.072;6.582;2023-05-20T06:42:19;5.63;;;1.67;;
73456;SDS011;61691;53.072;6.582;2023-05-20T06:47:16;6.45;;;1.70;;
73456;SDS011;61691;53.072;6.582;2023-05-20T06:49:43;7.25;;;1.70;;
73456;SDS011;61691;53.072;6.582;2023-05-20T06:52:12;10.80;;;2.10;;
73456;SDS011;61691;53.072;6.582;2023-05-20T06:54:39;10.60;;;2.13;;
73456;SDS011;61691;53.072;6.582;2023-05-20T06:57:07;10.35;;;2.17;;
73456;SDS011;61691;53.072;6.582;2023-05-20T06:59:35;11.20;;;2.00;;
73456;SDS011;61691;53.072;6.582;2023-05-20T07:02:02;8.38;;;1.75;;
73456;SDS011;61691;53.072;6.582;2023-05-20T07:04:29;10.27;;;1.95;;
73456;SDS011;61691;53.072;6.582;2023-05-20T07:06:56;8.45;;;2.00;;
73456;SDS011;61691;53.072;6.582;2023-05-20T07:09:23;8.63;;;2.08;;
73456;SDS011;61691;53.072;6.582;2023-05-20T07:11:49;10.60;;;1.80;;
73456;SDS011;61691;53.072;6.582;2023-05-20T07:14:16;10.70;;;2.25;;
73456;SDS011;61691;53.072;6.582;2023-05-20T07:16:44;10.65;;;2.67;;
73456;SDS011;61691;53.072;6.582;2023-05-20T07:19:10;9.50;;;2.53;;
73456;SDS011;61691;53.072;6.582;2023-05-20T07:21:37;8.88;;;1.83;;
73456;SDS011;61691;53.072;6.582;2023-05-20T07:24:04;7.07;;;1.70;;
73456;SDS011;61691;53.072;6.582;2023-05-20T07:26:31;9.45;;;2.17;;
73456;SDS011;61691;53.072;6.582;2023-05-20T07:29:02;9.13;;;1.83;;
73456;SDS011;61691;53.072;6.582;2023-05-20T07:31:29;8.75;;;2.22;;
73456;SDS011;61691;53.072;6.582;2023-05-20T07:33:56;7.13;;;1.70;;
73456;SDS011;61691;53.072;6.582;2023-05-20T07:36:25;9.30;;;1.90;;
73456;SDS011;61691;53.072;6.582;2023-05-20T07:38:53;8.52;;;1.88;;
73456;SDS011;61691;53.072;6.582;2023-05-20T07:41:30;5.47;;;1.60;;
73456;SDS011;61691;53.072;6.582;2023-05-20T07:43:57;6.68;;;1.63;;
73456;SDS011;61691;53.072;6.582;2023-05-20T07:46:24;7.13;;;2.00;;
73456;SDS011;61691;53.072;6.582;2023-05-20T07:48:50;7.53;;;1.70;;
73456;SDS011;61691;53.072;6.582;2023-05-20T07:51:17;7.47;;;2.00;;
73456;SDS011;61691;53.072;6.582;2023-05-20T07:53:44;10.07;;;1.88;;
73456;SDS011;61691;53.072;6.582;2023-05-20T07:56:11;11.50;;;2.47;;
73456;SDS011;61691;53.072;6.582;2023-05-20T07:58:39;8.98;;;2.00;;
73456;SDS011;61691;53.072;6.582;2023-05-20T08:01:07;7.35;;;1.90;;
73456;SDS011;61691;53.072;6.582;2023-05-20T08:03:34;8.45;;;2.13;;
73456;SDS011;61691;53.072;6.582;2023-05-20T08:06:02;5.78;;;1.90;;
73456;SDS011;61691;53.072;6.582;2023-05-20T08:08:29;12.80;;;2.03;;
73456;SDS011;61691;53.072;6.582;2023-05-20T08:10:56;9.27;;;2.10;;
73456;SDS011;61691;53.072;6.582;2023-05-20T08:13:23;10.10;;;2.03;;
73456;SDS011;61691;53.072;6.582;2023-05-20T08:15:51;10.43;;;2.10;;
73456;SDS011;61691;53.072;6.582;2023-05-20T08:18:21;7.90;;;2.00;;
73456;SDS011;61691;53.072;6.582;2023-05-20T08:20:48;9.75;;;2.05;;
73456;SDS011;61691;53.072;6.582;2023-05-20T08:23:16;8.50;;;1.88;;
73456;SDS011;61691;53.072;6.582;2023-05-20T08:25:42;7.97;;;2.00;;
73456;SDS011;61691;53.072;6.582;2023-05-20T08:28:12;10.82;;;2.00;;
73456;SDS011;61691;53.072;6.582;2023-05-20T08:30:39;9.52;;;2.22;;
73456;SDS011;61691;53.072;6.582;2023-05-20T08:33:06;9.57;;;2.05;;
73456;SDS011;61691;53.072;6.582;2023-05-20T08:35:34;9.45;;;2.35;;
73456;SDS011;61691;53.072;6.582;2023-05-20T08:38:01;9.57;;;2.10;;
73456;SDS011;61691;53.072;6.582;2023-05-20T08:40:28;11.40;;;2.58;;
73456;SDS011;61691;53.072;6.582;2023-05-20T08:42:55;11.82;;;2.40;;
73456;SDS011;61691;53.072;6.582;2023-05-20T08:45:23;13.10;;;2.65;;
73456;SDS011;61691;53.072;6.582;2023-05-20T08:47:53;11.70;;;2.38;;
73456;SDS011;61691;53.072;6.582;2023-05-20T08:50:20;11.02;;;2.60;;
73456;SDS011;61691;53.072;6.582;2023-05-20T08:52:47;9.52;;;2.40;;
73456;SDS011;61691;53.072;6.582;2023-05-20T08:55:16;9.10;;;2.40;;
73456;SDS011;61691;53.072;6.582;2023-05-20T08:57:54;10.75;;;2.40;;
73456;SDS011;61691;53.072;6.582;2023-05-20T09:00:21;11.93;;;2.47;;
73456;SDS011;61691;53.072;6.582;2023-05-20T09:02:52;10.35;;;2.63;;
73456;SDS011;61691;53.072;6.582;2023-05-20T09:05:20;8.35;;;2.17;;
73456;SDS011;61691;53.072;6.582;2023-05-20T09:07:48;12.57;;;2.63;;
73456;SDS011;61691;53.072;6.582;2023-05-20T09:10:15;10.90;;;2.38;;
73456;SDS011;61691;53.072;6.582;2023-05-20T09:12:42;9.23;;;2.85;;
73456;SDS011;61691;53.072;6.582;2023-05-20T09:15:08;7.78;;;2.30;;
73456;SDS011;61691;53.072;6.582;2023-05-20T09:17:36;13.02;;;2.78;;
73456;SDS011;61691;53.072;6.582;2023-05-20T09:20:07;9.25;;;2.28;;
73456;SDS011;61691;53.072;6.582;2023-05-20T09:22:37;11.93;;;2.70;;
73456;SDS011;61691;53.072;6.582;2023-05-20T09:25:04;14.18;;;2.50;;
73456;SDS011;61691;53.072;6.582;2023-05-20T09:27:31;9.52;;;2.40;;
73456;SDS011;61691;53.072;6.582;2023-05-20T09:29:59;10.68;;;2.50;;
73456;SDS011;61691;53.072;6.582;2023-05-20T09:32:26;9.73;;;2.40;;
73456;SDS011;61691;53.072;6.582;2023-05-20T09:34:54;10.43;;;2.50;;
73456;SDS011;61691;53.072;6.582;2023-05-20T09:37:21;12.35;;;2.42;;
73456;SDS011;61691;53.072;6.582;2023-05-20T09:42:34;11.82;;;2.67;;
73456;SDS011;61691;53.072;6.582;2023-05-20T09:45:07;11.27;;;2.63;;
73456;SDS011;61691;53.072;6.582;2023-05-20T09:47:39;10.75;;;2.45;;
73456;SDS011;61691;53.072;6.582;2023-05-20T09:50:07;12.38;;;2.83;;
73456;SDS011;61691;53.072;6.582;2023-05-20T09:52:36;11.48;;;2.60;;
73456;SDS011;61691;53.072;6.582;2023-05-20T09:55:04;11.02;;;2.35;;
73456;SDS011;61691;53.072;6.582;2023-05-20T09:57:35;11.10;;;2.40;;
73456;SDS011;61691;53.072;6.582;2023-05-20T10:00:03;12.85;;;2.25;;
73456;SDS011;61691;53.072;6.582;2023-05-20T10:02:32;11.68;;;2.42;;
73456;SDS011;61691;53.072;6.582;2023-05-20T10:05:02;7.43;;;2.05;;
73456;SDS011;61691;53.072;6.582;2023-05-20T10:21:15;13.53;;;2.77;;
73456;SDS011;61691;53.072;6.582;2023-05-20T10:23:43;14.70;;;2.75;;
73456;SDS011;61691;53.072;6.582;2023-05-20T10:26:10;9.65;;;2.40;;
73456;SDS011;61691;53.072;6.582;2023-05-20T10:28:37;15.32;;;3.08;;
73456;SDS011;61691;53.072;6.582;2023-05-20T10:31:22;13.77;;;2.70;;
73456;SDS011;61691;53.072;6.582;2023-05-20T10:33:51;12.57;;;2.70;;
73456;SDS011;61691;53.072;6.582;2023-05-20T10:36:22;11.52;;;2.72;;
73456;SDS011;61691;53.072;6.582;2023-05-20T10:38:54;11.10;;;2.78;;
73456;SDS011;61691;53.072;6.582;2023-05-20T10:41:24;11.68;;;2.53;;
73456;SDS011;61691;53.072;6.582;2023-05-20T10:44:00;11.25;;;2.63;;
73456;SDS011;61691;53.072;6.582;2023-05-20T10:46:29;9.05;;;2.22;;
73456;SDS011;61691;53.072;6.582;2023-05-20T10:49:17;11.60;;;2.40;;
73456;SDS011;61691;53.072;6.582;2023-05-20T10:51:52;11.82;;;2.55;;
73456;SDS011;61691;53.072;6.582;2023-05-20T10:54:20;11.85;;;2.30;;
73456;SDS011;61691;53.072;6.582;2023-05-20T10:56:51;12.20;;;2.38;;
73456;SDS011;61691;53.072;6.582;2023-05-20T10:59:19;9.95;;;2.40;;
73456;SDS011;61691;53.072;6.582;2023-05-20T11:01:49;11.68;;;2.60;;
73456;SDS011;61691;53.072;6.582;2023-05-20T11:04:16;10.57;;;2.25;;
73456;SDS011;61691;53.072;6.582;2023-05-20T11:06:51;10.82;;;2.33;;
73456;SDS011;61691;53.072;6.582;2023-05-20T11:09:21;10.82;;;2.60;;
73456;SDS011;61691;53.072;6.582;2023-05-20T11:11:49;14.85;;;2.50;;
73456;SDS011;61691;53.072;6.582;2023-05-20T11:14:17;8.35;;;2.17;;
73456;SDS011;61691;53.072;6.582;2023-05-20T11:16:45;11.20;;;2.90;;
73456;SDS011;61691;53.072;6.582;2023-05-20T11:19:16;11.98;;;2.78;;
73456;SDS011;61691;53.072;6.582;2023-05-20T11:21:44;11.75;;;2.30;;
73456;SDS011;61691;53.072;6.582;2023-05-20T11:24:12;13.32;;;2.67;;
73456;SDS011;61691;53.072;6.582;2023-05-20T11:26:39;11.15;;;2.30;;
73456;SDS011;61691;53.072;6.582;2023-05-20T11:29:06;12.93;;;2.42;;
73456;SDS011;61691;53.072;6.582;2023-05-20T11:31:33;11.93;;;2.60;;
73456;SDS011;61691;53.072;6.582;2023-05-20T11:34:03;11.13;;;2.38;;
73456;SDS011;61691;53.072;6.582;2023-05-20T11:36:30;12.30;;;2.40;;
73456;SDS011;61691;53.072;6.582;2023-05-20T11:38:58;11.32;;;2.45;;
73456;SDS011;61691;53.072;6.582;2023-05-20T11:41:26;11.52;;;2.60;;
73456;SDS011;61691;53.072;6.582;2023-05-20T11:43:59;10.65;;;2.60;;
73456;SDS011;61691;53.072;6.582;2023-05-20T11:46:26;11.93;;;2.30;;
73456;SDS011;61691;53.072;6.582;2023-05-20T11:48:54;8.73;;;2.00;;
73456;SDS011;61691;53.072;6.582;2023-05-20T11:51:28;8.40;;;2.28;;
73456;SDS011;61691;53.072;6.582;2023-05-20T11:53:59;12.23;;;2.85;;
73456;SDS011;61691;53.072;6.582;2023-05-20T11:56:30;9.15;;;2.40;;
73456;SDS011;61691;53.072;6.582;2023-05-20T11:59:04;9.10;;;2.20;;
73456;SDS011;61691;53.072;6.582;2023-05-20T12:01:32;12.90;;;2.90;;
73456;SDS011;61691;53.072;6.582;2023-05-20T12:04:06;9.77;;;2.65;;
73456;SDS011;61691;53.072;6.582;2023-05-20T12:06:34;9.55;;;2.13;;
73456;SDS011;61691;53.072;6.582;2023-05-20T12:09:05;12.30;;;2.50;;
73456;SDS011;61691;53.072;6.582;2023-05-20T12:11:37;8.27;;;2.15;;
73456;SDS011;61691;53.072;6.582;2023-05-20T12:14:07;11.60;;;2.20;;
73456;SDS011;61691;53.072;6.582;2023-05-20T12:16:34;10.75;;;2.38;;
73456;SDS011;61691;53.072;6.582;2023-05-20T12:19:02;7.90;;;1.90;;
73456;SDS011;61691;53.072;6.582;2023-05-20T12:21:30;10.90;;;2.50;;
73456;SDS011;61691;53.072;6.582;2023-05-20T12:24:00;10.05;;;2.40;;
73456;SDS011;61691;53.072;6.582;2023-05-20T12:26:27;12.38;;;1.95;;
73456;SDS011;61691;53.072;6.582;2023-05-20T12:28:55;8.88;;;2.42;;
73456;SDS011;61691;53.072;6.582;2023-05-20T12:31:22;11.95;;;2.00;;
73456;SDS011;61691;53.072;6.582;2023-05-20T12:33:49;8.30;;;1.98;;
73456;SDS011;61691;53.072;6.582;2023-05-20T12:36:16;9.20;;;2.10;;
73456;SDS011;61691;53.072;6.582;2023-05-20T12:38:42;11.00;;;2.08;;
73456;SDS011;61691;53.072;6.582;2023-05-20T12:41:09;10.07;;;2.38;;
73456;SDS011;61691;53.072;6.582;2023-05-20T12:43:36;8.50;;;2.30;;
73456;SDS011;61691;53.072;6.582;2023-05-20T12:46:03;10.40;;;2.10;;
73456;SDS011;61691;53.072;6.582;2023-05-20T12:48:31;9.25;;;2.20;;
73456;SDS011;61691;53.072;6.582;2023-05-20T12:50:58;11.15;;;2.15;;
73456;SDS011;61691;53.072;6.582;2023-05-20T12:53:25;11.40;;;2.45;;
73456;SDS011;61691;53.072;6.582;2023-05-20T12:55:52;11.27;;;2.47;;
73456;SDS011;61691;53.072;6.582;2023-05-20T12:58:19;13.82;;;2.53;;
73456;SDS011;61691;53.072;6.582;2023-05-20T13:00:45;11.55;;;2.38;;
73456;SDS011;61691;53.072;6.582;2023-05-20T13:03:12;9.63;;;2.38;;
73456;SDS011;61691;53.072;6.582;2023-05-20T13:05:40;11.10;;;2.50;;
73456;SDS011;61691;53.072;6.582;2023-05-20T13:08:07;10.73;;;2.50;;
73456;SDS011;61691;53.072;6.582;2023-05-20T13:10:35;9.32;;;2.10;;
73456;SDS011;61691;53.072;6.582;2023-05-20T13:13:03;10.07;;;2.00;;
73456;SDS011;61691;53.072;6.582;2023-05-20T13:15:30;13.95;;;2.83;;
73456;SDS011;61691;53.072;6.582;2023-05-20T13:17:58;10.98;;;2.25;;
73456;SDS011;61691;53.072;6.582;2023-05-20T13:20:27;12.18;;;2.60;;
73456;SDS011;61691;53.072;6.582;2023-05-20T13:22:55;11.48;;;2.20;;
73456;SDS011;61691;53.072;6.582;2023-05-20T13:25:21;14.13;;;2.40;;
73456;SDS011;61691;53.072;6.582;2023-05-20T13:27:49;11.07;;;2.60;;
73456;SDS011;61691;53.072;6.582;2023-05-20T13:30:16;12.18;;;2.40;;
73456;SDS011;61691;53.072;6.582;2023-05-20T13:32:42;5.60;;;1.80;;
73456;SDS011;61691;53.072;6.582;2023-05-20T13:35:09;9.73;;;2.45;;
73456;SDS011;61691;53.072;6.582;2023-05-20T13:37:38;12.48;;;2.72;;
73456;SDS011;61691;53.072;6.582;2023-05-20T13:40:05;8.45;;;2.22;;
73456;SDS011;61691;53.072;6.582;2023-05-20T13:42:32;11.15;;;2.20;;
73456;SDS011;61691;53.072;6.582;2023-05-20T13:44:59;10.80;;;2.40;;
73456;SDS011;61691;53.072;6.582;2023-05-20T13:47:26;11.48;;;2.47;;
73456;SDS011;61691;53.072;6.582;2023-05-20T13:49:53;9.93;;;2.42;;
73456;SDS011;61691;53.072;6.582;2023-05-20T13:52:20;15.50;;;2.80;;
73456;SDS011;61691;53.072;6.582;2023-05-20T13:54:46;10.93;;;2.42;;
73456;SDS011;61691;53.072;6.582;2023-05-20T13:57:14;11.75;;;2.42;;
73456;SDS011;61691;53.072;6.582;2023-05-20T13:59:41;11.60;;;2.58;;
73456;SDS011;61691;53.072;6.582;2023-05-20T14:02:08;18.75;;;6.22;;
73456;SDS011;61691;53.072;6.582;2023-05-20T14:04:35;12.77;;;3.38;;
73456;SDS011;61691;53.072;6.582;2023-05-20T14:07:05;20.10;;;8.75;;
73456;SDS011;61691;53.072;6.582;2023-05-20T14:09:35;44.83;;;30.90;;
73456;SDS011;61691;53.072;6.582;2023-05-20T14:12:02;20.85;;;6.85;;
73456;SDS011;61691;53.072;6.582;2023-05-20T14:14:30;16.95;;;4.95;;
73456;SDS011;61691;53.072;6.582;2023-05-20T14:16:56;12.55;;;2.90;;
73456;SDS011;61691;53.072;6.582;2023-05-20T14:19:24;14.10;;;3.05;;
73456;SDS011;61691;53.072;6.582;2023-05-20T14:21:52;12.35;;;2.95;;
73456;SDS011;61691;53.072;6.582;2023-05-20T14:24:18;16.27;;;2.92;;
73456;SDS011;61691;53.072;6.582;2023-05-20T14:26:48;10.93;;;2.47;;
73456;SDS011;61691;53.072;6.582;2023-05-20T14:29:15;12.77;;;2.50;;
73456;SDS011;61691;53.072;6.582;2023-05-20T14:31:42;12.35;;;2.70;;
73456;SDS011;61691;53.072;6.582;2023-05-20T14:34:09;17.27;;;5.85;;
73456;SDS011;61691;53.072;6.582;2023-05-20T14:36:36;12.48;;;2.60;;
73456;SDS011;61691;53.072;6.582;2023-05-20T14:39:03;10.80;;;2.72;;
73456;SDS011;61691;53.072;6.582;2023-05-20T14:41:30;13.27;;;2.75;;
73456;SDS011;61691;53.072;6.582;2023-05-20T14:43:57;16.40;;;4.05;;
73456;SDS011;61691;53.072;6.582;2023-05-20T14:46:23;14.35;;;4.20;;
73456;SDS011;61691;53.072;6.582;2023-05-20T14:48:50;12.20;;;2.42;;
73456;SDS011;61691;53.072;6.582;2023-05-20T14:51:17;13.63;;;3.60;;
73456;SDS011;61691;53.072;6.582;2023-05-20T14:53:45;15.30;;;4.63;;
73456;SDS011;61691;53.072;6.582;2023-05-20T14:56:12;15.40;;;3.53;;
73456;SDS011;61691;53.072;6.582;2023-05-20T14:58:39;13.23;;;2.97;;
73456;SDS011;61691;53.072;6.582;2023-05-20T15:01:06;16.92;;;3.67;;